createdAt,value
2023-05-06T00:01:16.101Z,76.28
2023-05-06T00:04:22.761Z,75.57
2023-05-06T00:07:28.485Z,75.77
2023-05-06T00:10:35.332Z,75.04
2023-05-06T00:13:40.949Z,72.28
2023-05-06T00:16:51.222Z,73.68
2023-05-06T00:19:58.985Z,73.51
2023-05-06T00:23:05.610Z,72.48
2023-05-06T00:26:11.178Z,72.33
2023-05-06T00:29:17.611Z,75.94
2023-05-06T00:32:25.856Z,77.89
2023-05-06T00:35:32.269Z,78.28
2023-05-06T00:38:37.827Z,75.61
2023-05-06T00:41:46.902Z,73.72
2023-05-06T00:44:52.710Z,75.12
2023-05-06T00:48:03.059Z,73.92
2023-05-06T00:51:08.915Z,74.72
2023-05-06T00:54:18.665Z,73.84
2023-05-06T00:57:24.892Z,74.29
2023-05-06T01:00:31.605Z,73.86
2023-05-06T01:03:40.016Z,78.42
2023-05-06T01:07:02.569Z,78.81
2023-05-06T01:10:24.084Z,75.32
2023-05-06T01:13:45.694Z,71.93
2023-05-06T01:17:01.201Z,72.56
2023-05-06T01:20:15.576Z,72.90
2023-05-06T01:23:24.651Z,70.82
2023-05-06T01:26:31.132Z,71.30
2023-05-06T01:29:45.565Z,74.09
2023-05-06T01:33:11.322Z,78.77
2023-05-06T01:36:32.380Z,78.34
2023-05-06T01:39:46.630Z,75.20
2023-05-06T01:42:53.065Z,74.14
2023-05-06T01:46:01.271Z,78.64
2023-05-06T01:49:12.468Z,78.72
2023-05-06T01:52:19.470Z,79.20
2023-05-06T01:55:28.761Z,74.30
2023-05-06T01:58:34.317Z,75.46
2023-05-06T02:01:40.859Z,79.65
2023-05-06T02:04:46.595Z,75.09
2023-05-06T02:07:53.307Z,75.19
2023-05-06T02:11:04.789Z,72.34
2023-05-06T02:14:11.764Z,69.29
2023-05-06T02:17:17.473Z,67.01
2023-05-06T02:20:24.299Z,69.51
2023-05-06T02:23:30.047Z,68.31
2023-05-06T02:26:39.139Z,70.29
2023-05-06T02:29:45.084Z,70.01
2023-05-06T02:32:51.557Z,68.71
2023-05-06T02:35:57.180Z,68.17
2023-05-06T02:39:04.142Z,68.98
2023-05-06T02:42:13.309Z,71.99
2023-05-06T02:45:20.116Z,74.60
2023-05-06T02:48:25.883Z,74.37
2023-05-06T02:51:34.046Z,71.35
2023-05-06T02:54:39.643Z,71.19
2023-05-06T02:57:49.799Z,69.38
2023-05-06T03:00:55.856Z,71.25
2023-05-06T03:04:02.442Z,71.53
2023-05-06T03:07:08.197Z,71.86
2023-05-06T03:10:14.700Z,71.34
2023-05-06T03:13:23.359Z,74.60
2023-05-06T03:16:30.560Z,72.29
2023-05-06T03:19:38.534Z,71.60
2023-05-06T03:22:47.227Z,70.16
2023-05-06T03:25:53.156Z,71.26
2023-05-06T03:29:03.313Z,72.43
2023-05-06T03:32:10.161Z,68.80
2023-05-06T03:35:22.836Z,72.44
2023-05-06T03:38:33.039Z,70.15
2023-05-06T03:41:43.157Z,74.99
2023-05-06T03:44:52.023Z,75.68
2023-05-06T03:47:58.820Z,73.03
2023-05-06T03:51:05.666Z,75.13
2023-05-06T03:54:12.368Z,72.63
2023-05-06T03:57:18.499Z,75.33
2023-05-06T04:00:28.723Z,81.82
2023-05-06T04:03:34.493Z,84.09
2023-05-06T04:06:41.418Z,89.00
2023-05-06T04:09:47.436Z,88.04
2023-05-06T04:12:54.246Z,83.37
2023-05-06T04:16:09.881Z,78.36
2023-05-06T04:19:20.400Z,71.55
2023-05-06T04:22:26.862Z,74.31
2023-05-06T04:25:36.083Z,66.77
2023-05-06T04:28:41.921Z,71.49
2023-05-06T04:31:54.237Z,71.56
2023-05-06T04:35:01.171Z,76.95
2023-05-06T04:38:07.885Z,80.12
2023-05-06T04:41:14.252Z,77.94
2023-05-06T04:44:20.823Z,74.45
2023-05-06T04:47:32.437Z,69.90
2023-05-06T04:50:39.080Z,65.51
2023-05-06T04:53:44.911Z,67.04
2023-05-06T04:56:51.439Z,67.31
2023-05-06T04:59:59.142Z,66.28
2023-05-06T05:03:09.162Z,66.35
2023-05-06T05:06:15.840Z,66.34
2023-05-06T05:09:23.323Z,66.99
2023-05-06T05:12:29.248Z,68.48
2023-05-06T05:15:36.095Z,69.39
2023-05-06T05:18:45.173Z,68.81
2023-05-06T05:21:57.817Z,67.36
2023-05-06T05:25:06.960Z,66.54
2023-05-06T05:28:14.975Z,68.13
2023-05-06T05:31:21.804Z,68.34
2023-05-06T05:34:31.357Z,68.54
2023-05-06T05:37:38.077Z,68.24
2023-05-06T05:40:45.151Z,69.39
2023-05-06T05:43:51.075Z,66.89
2023-05-06T05:46:58.426Z,68.20
2023-05-06T05:50:07.504Z,69.63
2023-05-06T05:53:14.950Z,71.83
2023-05-06T05:56:20.884Z,68.43
2023-05-06T05:59:28.912Z,70.49
2023-05-06T06:02:39.210Z,71.51
2023-05-06T06:05:49.618Z,69.97
2023-05-06T06:08:56.276Z,69.82
2023-05-06T06:12:03.498Z,69.68
2023-05-06T06:15:12.826Z,66.47
2023-05-06T06:18:21.078Z,66.20
2023-05-06T06:21:29.820Z,64.35
2023-05-06T06:24:37.264Z,68.64
2023-05-06T06:27:43.213Z,67.41
2023-05-06T06:30:50.305Z,66.44
2023-05-06T06:33:56.473Z,67.00
2023-05-06T06:37:08.643Z,66.20
2023-05-06T06:40:16.536Z,66.09
2023-05-06T06:43:24.139Z,67.10
2023-05-06T06:46:36.343Z,65.63
2023-05-06T06:49:45.049Z,63.44
2023-05-06T06:52:53.212Z,67.96
2023-05-06T06:55:59.862Z,64.75
2023-05-06T06:59:05.512Z,65.65
2023-05-06T07:02:12.025Z,63.03
2023-05-06T07:05:21.742Z,66.54
2023-05-06T07:08:31.117Z,61.86
2023-05-06T07:11:36.752Z,62.41
2023-05-06T07:14:43.320Z,63.83
2023-05-06T07:17:49.307Z,60.27
2023-05-06T07:20:58.353Z,62.49
2023-05-06T07:24:06.985Z,62.90
2023-05-06T07:27:16.018Z,63.44
2023-05-06T07:30:23.190Z,60.76
2023-05-06T07:33:32.058Z,61.20
2023-05-06T07:36:43.680Z,59.87
2023-05-06T07:39:55.398Z,61.18
2023-05-06T07:43:01.087Z,61.01
2023-05-06T07:46:13.808Z,66.03
2023-05-06T07:49:19.651Z,68.55
2023-05-06T07:52:27.386Z,67.50
2023-05-06T07:55:37.866Z,73.56
2023-05-06T07:58:44.406Z,68.39
2023-05-06T08:01:50.046Z,65.11
2023-05-06T08:04:56.655Z,63.73
2023-05-06T08:08:02.587Z,64.19
2023-05-06T08:11:11.953Z,80.86
2023-05-06T08:14:17.657Z,72.08
2023-05-06T08:17:24.480Z,67.38
2023-05-06T08:20:30.334Z,66.22
2023-05-06T08:23:36.821Z,68.00
2023-05-06T08:26:45.177Z,64.22
2023-05-06T08:29:51.872Z,68.52
2023-05-06T08:32:57.559Z,66.75
2023-05-06T08:36:04.143Z,64.41
2023-05-06T08:39:09.677Z,67.96
2023-05-06T08:42:18.746Z,63.38
2023-05-06T08:45:25.902Z,65.10
2023-05-06T08:48:34.908Z,68.64
2023-05-06T08:51:45.435Z,64.82
2023-05-06T08:55:01.741Z,66.64
2023-05-06T08:58:11.433Z,64.97
2023-05-06T09:01:19.002Z,68.78
2023-05-06T09:04:25.466Z,69.15
2023-05-06T09:07:31.969Z,65.52
2023-05-06T09:10:46.796Z,67.72
2023-05-06T09:14:13.174Z,69.59
2023-05-06T09:17:28.292Z,63.45
2023-05-06T09:20:36.807Z,64.43
2023-05-06T09:23:42.656Z,64.63
2023-05-06T09:26:50.769Z,61.90
2023-05-06T09:30:07.931Z,63.51
2023-05-06T09:33:15.499Z,74.61
2023-05-06T09:36:21.512Z,76.39
2023-05-06T09:39:29.558Z,87.98
2023-05-06T09:42:35.975Z,98.20
2023-05-06T09:45:47.126Z,91.96
2023-05-06T09:48:56.055Z,101.96
2023-05-06T09:52:04.398Z,104.53
2023-05-06T09:55:13.971Z,99.50
2023-05-06T09:58:22.050Z,86.92
2023-05-06T10:01:37.114Z,87.04
2023-05-06T10:04:48.116Z,92.50
2023-05-06T10:07:59.578Z,89.59
2023-05-06T10:11:18.173Z,99.77
2023-05-06T10:14:29.015Z,100.38
2023-05-06T10:17:47.662Z,108.65
2023-05-06T10:20:56.403Z,108.66
2023-05-06T10:24:11.717Z,113.27
2023-05-06T10:27:27.049Z,138.40
2023-05-06T10:30:36.553Z,133.47
2023-05-06T10:33:51.816Z,122.71
2023-05-06T10:37:57.163Z,128.09
2023-05-06T10:41:06.278Z,119.92
2023-05-06T10:44:15.836Z,144.29
2023-05-06T10:47:25.012Z,160.67
2023-05-06T10:50:34.318Z,171.52
2023-05-06T10:54:08.334Z,134.28
2023-05-06T10:57:15.143Z,114.86
2023-05-06T11:00:24.718Z,109.07
2023-05-06T11:03:31.694Z,114.56
2023-05-06T11:07:11.988Z,116.87
2023-05-06T11:10:18.750Z,140.14
2023-05-06T11:13:28.313Z,152.93
2023-05-06T11:16:54.905Z,133.93
2023-05-06T11:20:29.557Z,135.70
2023-05-06T11:24:15.120Z,150.34
2023-05-06T11:27:26.273Z,148.02
2023-05-06T11:30:32.681Z,136.22
2023-05-06T11:33:40.526Z,135.42
2023-05-06T11:36:58.811Z,129.60
2023-05-06T11:40:19.901Z,119.96
2023-05-06T11:43:28.746Z,120.62
2023-05-06T11:46:37.479Z,127.36
2023-05-06T11:49:50.010Z,142.43
2023-05-06T11:52:56.988Z,130.74
2023-05-06T11:56:10.915Z,129.83
2023-05-06T11:59:17.009Z,134.19
2023-05-06T12:06:05.913Z,180.52
2023-05-06T12:09:28.398Z,236.06
2023-05-06T12:12:39.402Z,141.14
2023-05-06T12:15:52.077Z,144.03
2023-05-06T12:18:58.446Z,214.66
2023-05-06T12:22:21.026Z,191.39
2023-05-06T12:25:26.729Z,183.87
2023-05-06T12:28:42.788Z,181.39
2023-05-06T12:31:51.191Z,189.06
2023-05-06T12:35:08.174Z,192.57
2023-05-06T12:38:21.875Z,179.64
2023-05-06T12:41:43.117Z,177.32
2023-05-06T12:44:52.554Z,171.29
2023-05-06T12:48:05.417Z,162.33
2023-05-06T12:51:22.334Z,165.96
2023-05-06T12:54:37.580Z,174.98
2023-05-06T12:57:43.404Z,192.18
2023-05-06T13:00:52.701Z,193.98
2023-05-06T13:03:59.995Z,207.66
2023-05-06T13:07:06.795Z,221.67
2023-05-06T13:10:13.418Z,226.96
2023-05-06T13:13:26.574Z,294.24
2023-05-06T13:16:38.616Z,319.30
2023-05-06T13:19:47.285Z,264.08
2023-05-06T13:22:55.541Z,256.51
2023-05-06T13:26:07.166Z,243.98
2023-05-06T13:29:12.845Z,257.58
2023-05-06T13:32:21.998Z,239.97
2023-05-06T13:35:27.906Z,243.31
2023-05-06T13:38:34.763Z,269.70
2023-05-06T13:41:40.732Z,272.90
2023-05-06T13:44:47.183Z,309.27
2023-05-06T13:47:55.555Z,356.73
2023-05-06T13:51:02.189Z,346.60
2023-05-06T13:54:07.953Z,311.26
2023-05-06T13:57:14.273Z,295.30
2023-05-06T14:00:20.456Z,284.76
2023-05-06T14:03:29.512Z,289.25
2023-05-06T14:06:35.290Z,310.30
2023-05-06T14:09:41.695Z,370.31
2023-05-06T14:12:47.438Z,852.38
2023-05-06T14:15:53.841Z,631.32
2023-05-06T14:19:03.373Z,581.82
2023-05-06T14:22:09.744Z,590.68
2023-05-06T14:25:15.509Z,423.24
2023-05-06T14:28:21.953Z,321.53
2023-05-06T14:31:28.086Z,400.62
2023-05-06T14:34:38.047Z,390.52
2023-05-06T14:37:44.002Z,337.65
2023-05-06T14:40:50.450Z,359.40
2023-05-06T14:43:56.183Z,382.58
2023-05-06T14:47:02.504Z,309.53
2023-05-06T14:50:13.513Z,259.83
2023-05-06T14:53:19.954Z,223.38
2023-05-06T14:56:25.848Z,223.90
2023-05-06T14:59:32.209Z,210.33
2023-05-06T15:02:38.485Z,179.64
2023-05-06T15:05:47.487Z,194.69
2023-05-06T15:08:53.128Z,208.34
2023-05-06T15:12:00.265Z,210.05
2023-05-06T15:15:06.326Z,175.09
2023-05-06T15:18:13.519Z,180.90
2023-05-06T15:21:21.836Z,213.58
2023-05-06T15:24:28.295Z,291.47
2023-05-06T15:27:34.067Z,202.63
2023-05-06T15:30:40.856Z,242.36
2023-05-06T15:33:46.516Z,239.44
2023-05-06T15:36:56.994Z,198.37
2023-05-06T15:40:02.824Z,226.28
2023-05-06T15:43:09.315Z,201.09
2023-05-06T15:46:15.285Z,203.50
2023-05-06T15:52:33.102Z,198.97
2023-05-06T15:55:46.708Z,200.04
2023-05-06T15:58:58.764Z,200.62
2023-05-06T16:05:14.050Z,199.28
2023-05-06T16:08:23.273Z,189.19
2023-05-06T16:11:29.037Z,197.96
2023-05-06T16:14:37.064Z,191.59
2023-05-06T16:17:42.858Z,188.10
2023-05-06T16:20:49.368Z,187.06
2023-05-06T16:23:57.702Z,199.08
2023-05-06T16:27:05.939Z,204.01
2023-05-06T16:30:13.406Z,199.07
2023-05-06T16:33:19.882Z,189.86
2023-05-06T16:36:25.547Z,196.46
2023-05-06T16:39:34.524Z,192.33
2023-05-06T16:42:40.117Z,193.17
2023-05-06T16:45:46.573Z,199.87
2023-05-06T16:48:52.356Z,201.36
2023-05-06T16:52:00.768Z,218.68
2023-05-06T16:55:10.325Z,224.79
2023-05-06T16:58:16.783Z,222.08
2023-05-06T17:01:22.488Z,229.43
2023-05-06T17:04:29.072Z,228.53
2023-05-06T17:07:35.206Z,206.80
2023-05-06T17:10:44.184Z,202.24
2023-05-06T17:13:49.766Z,193.46
2023-05-06T17:16:56.537Z,197.50
2023-05-06T17:20:02.426Z,205.24
2023-05-06T17:23:08.871Z,192.87
2023-05-06T17:26:18.027Z,185.86
2023-05-06T17:29:24.425Z,178.16
2023-05-06T17:32:30.521Z,172.70
2023-05-06T17:35:37.184Z,167.78
2023-05-06T17:38:43.122Z,176.85
2023-05-06T17:41:53.056Z,168.52
2023-05-06T17:44:58.689Z,170.76
2023-05-06T17:48:05.024Z,174.03
2023-05-06T17:51:10.656Z,172.37
2023-05-06T17:54:17.182Z,162.90
2023-05-06T17:57:25.572Z,161.82
2023-05-06T18:00:32.042Z,158.38
2023-05-06T18:03:37.791Z,155.62
2023-05-06T18:06:45.363Z,163.46
2023-05-06T18:09:52.334Z,173.29
2023-05-06T18:13:01.491Z,173.83
2023-05-06T18:16:07.858Z,178.36
2023-05-06T18:19:14.375Z,179.87
2023-05-06T18:22:23.163Z,182.62
2023-05-06T18:25:29.485Z,172.74
2023-05-06T18:28:41.033Z,177.62
2023-05-06T18:31:47.506Z,184.34
2023-05-06T18:34:53.158Z,179.81
2023-05-06T18:37:59.851Z,176.36
2023-05-06T18:41:07.083Z,172.76
2023-05-06T18:44:16.069Z,175.80
2023-05-06T18:47:22.512Z,181.74
2023-05-06T18:50:28.955Z,176.82
2023-05-06T18:53:34.529Z,175.83
2023-05-06T18:56:42.009Z,171.50
2023-05-06T18:59:50.399Z,171.67
2023-05-06T19:02:56.964Z,172.82
2023-05-06T19:06:04.421Z,186.91
2023-05-06T19:09:11.439Z,185.14
2023-05-06T19:12:18.589Z,195.81
2023-05-06T19:15:27.710Z,188.54
2023-05-06T19:18:33.426Z,188.07
2023-05-06T19:21:40.561Z,179.52
2023-05-06T19:24:46.303Z,182.23
2023-05-06T19:27:52.935Z,184.07
2023-05-06T19:31:01.514Z,174.84
2023-05-06T19:34:08.712Z,185.32
2023-05-06T19:37:14.460Z,182.46
2023-05-06T19:40:22.137Z,196.96
2023-05-06T19:43:27.967Z,191.52
2023-05-06T19:46:37.084Z,191.99
2023-05-06T19:49:42.912Z,185.96
2023-05-06T19:52:49.291Z,195.93
2023-05-06T19:55:59.531Z,203.16
2023-05-06T19:59:05.857Z,203.81
2023-05-06T20:02:16.646Z,205.31
2023-05-06T20:05:23.512Z,209.68
2023-05-06T20:08:29.254Z,209.17
2023-05-06T20:11:35.978Z,210.23
2023-05-06T20:14:41.880Z,197.46
2023-05-06T20:17:50.976Z,192.90
2023-05-06T20:20:56.824Z,184.83
2023-05-06T20:24:03.332Z,182.74
2023-05-06T20:27:09.027Z,182.22
2023-05-06T20:30:15.984Z,181.90
2023-05-06T20:33:24.354Z,183.19
2023-05-06T20:36:31.123Z,183.45
2023-05-06T20:39:36.747Z,179.40
2023-05-06T20:42:43.351Z,180.22
2023-05-06T20:45:49.174Z,179.94
2023-05-06T20:48:59.133Z,178.47
2023-05-06T20:52:06.301Z,180.71
2023-05-06T20:55:14.910Z,181.45
2023-05-06T20:58:20.645Z,185.31
2023-05-06T21:01:28.257Z,173.82
2023-05-06T21:04:36.614Z,173.90
2023-05-06T21:07:43.030Z,175.57
2023-05-06T21:10:48.629Z,168.56
2023-05-06T21:13:55.063Z,171.36
2023-05-06T21:17:01.056Z,170.63
2023-05-06T21:20:12.322Z,166.73
2023-05-06T21:23:19.232Z,161.81
2023-05-06T21:26:25.830Z,145.58
2023-05-06T21:29:31.603Z,139.09
2023-05-06T21:32:38.100Z,132.58
2023-05-06T21:35:46.283Z,119.33
2023-05-06T21:39:03.855Z,121.89
2023-05-06T21:42:09.676Z,113.83
2023-05-06T21:45:16.467Z,114.92
2023-05-06T21:48:22.222Z,111.41
2023-05-06T21:51:35.243Z,110.80
2023-05-06T21:54:41.029Z,112.67
2023-05-06T21:57:47.568Z,107.76
2023-05-06T22:00:53.572Z,114.31
2023-05-06T22:04:00.801Z,118.35
2023-05-06T22:07:10.000Z,120.61
2023-05-06T22:10:16.773Z,121.35
2023-05-06T22:13:25.461Z,123.53
2023-05-06T22:16:34.593Z,120.81
2023-05-06T22:19:41.129Z,121.80
2023-05-06T22:22:54.443Z,130.93
2023-05-06T22:26:00.493Z,135.14
2023-05-06T22:29:07.033Z,133.08
2023-05-06T22:32:12.744Z,139.02
2023-05-06T22:35:19.370Z,144.88
2023-05-06T22:38:28.094Z,141.63
2023-05-06T22:41:34.490Z,145.47
2023-05-06T22:44:40.252Z,147.78
2023-05-06T22:47:46.997Z,149.02
2023-05-06T22:50:52.998Z,152.12
2023-05-06T22:54:02.203Z,153.45
2023-05-06T22:57:08.167Z,155.35
2023-05-06T23:00:17.488Z,158.42
2023-05-06T23:03:26.302Z,158.06
2023-05-06T23:06:33.406Z,161.62
2023-05-06T23:09:41.675Z,154.87
2023-05-06T23:12:48.151Z,150.82
2023-05-06T23:15:54.134Z,149.69
2023-05-06T23:19:00.571Z,154.92
2023-05-06T23:22:06.289Z,153.82
2023-05-06T23:25:16.578Z,146.64
2023-05-06T23:28:22.864Z,143.58
2023-05-06T23:31:29.340Z,141.92
2023-05-06T23:34:35.074Z,140.81
2023-05-06T23:37:41.605Z,143.15
2023-05-06T23:40:49.901Z,140.45
2023-05-06T23:43:56.372Z,140.16
2023-05-06T23:47:02.119Z,137.80
2023-05-06T23:50:12.977Z,136.14
2023-05-06T23:53:18.915Z,128.89
2023-05-06T23:56:27.936Z,127.99
2023-05-06T23:59:35.874Z,117.93
